Flight Track Log - Related Links

Times and Time Zones

All times are in EDT time to prevent confusion due to time zone crossing. See the DAL3974 flight status page for this flight to view local times or setup timezone preferences in your user account.

Time Position Orientation Groundspeed Altitude Reporting Facility
EDT Latitude Longitude Course Direction KTS MPH feet Rate Location/Type
Wed 08:04:28 PM 42.2017 -83.3553 77° East 152 175 1,400  Level Cleveland Center
Wed 08:05:00 PM 42.1825 -83.3494 167° South 169 194 2,300 1,846 Climbing FAA TRACON SMA TRACON (SMA)
Wed 08:05:20 PM 42.1631 -83.3450 170° South 193 222 3,000 2,400 Climbing FAA TRACON SMA TRACON (SMA)
Wed 08:05:40 PM 42.1431 -83.3411 172° South 201 231 3,900 2,195 Climbing FAA TRACON SMA TRACON (SMA)
Wed 08:06:01 PM 42.1239 -83.3386 174° South 217 250 4,500 1,950 Climbing FAA TRACON SMA TRACON (SMA)
Wed 08:06:20 PM 42.1033 -83.3356 174° South 240 276 5,200 2,462 Climbing FAA TRACON SMA TRACON (SMA)
Wed 08:06:40 PM 42.0817 -83.3319 173° South 257 296 6,100 2,400 Climbing FAA TRACON SMA TRACON (SMA)
Wed 08:07:00 PM 42.0628 -83.3158 148° Southeast 273 314 6,800 1,950 Climbing FAA TRACON SMA TRACON (SMA)
Wed 08:07:20 PM 42.0522 -83.2772 110° East 283 326 7,400 2,100 Climbing FAA TRACON SMA TRACON (SMA)
Wed 08:07:40 PM 42.0536 -83.2439 87° East 286 329 8,200 1,463 Climbing FAA TRACON SMA TRACON (SMA)
Wed 08:08:00 PM 42.3183 -82.6978 78° East  Level FlightAware Approximate
Wed 08:08:01 PM 42.0614 -83.2111 72° East 293 337 8,400  Level FAA TRACON SMA TRACON (SMA)
Wed 08:08:21 PM 42.0781 -83.1739 59° Northeast 290 334 8,600 769 Climbing FAA TRACON SMA TRACON (SMA)
Wed 08:08:40 PM 42.0897 -83.1461 60° Northeast 291 335 8,900 1,231 Climbing FAA TRACON SMA TRACON (SMA)
Wed 08:09:00 PM 42.3420 -82.5315 77° East  Level FlightAware Approximate
Wed 08:09:00 PM 42.1044 -83.1086 62° Northeast 291 335 9,400  Level FAA TRACON SMA TRACON (SMA)
Wed 08:09:21 PM 42.1161 -83.0792 62° Northeast 292 336 9,800 1,317 Climbing FAA TRACON SMA TRACON (SMA)
Wed 08:09:41 PM 42.1292 -83.0494 59° Northeast 295 339 10,300 1,800 Climbing FAA TRACON SMA TRACON (SMA)
Wed 08:10:01 PM 42.1447 -83.0094 62° Northeast 311 358 11,000 1,950 Climbing FAA TRACON SMA TRACON (SMA)
Wed 08:10:21 PM 42.1572 -82.9761 63° Northeast 310 357 11,600 1,692 Climbing FAA TRACON SMA TRACON (SMA)
Wed 08:10:40 PM 42.1714 -82.9417 61° Northeast 333 383 12,100 1,800 Climbing FAA TRACON SMA TRACON (SMA)
Wed 08:11:01 PM 42.1900 -82.8989 60° Northeast 341 392 12,800 1,756 Climbing FAA TRACON SMA TRACON (SMA)
Wed 08:11:21 PM 42.2047 -82.8631 61° Northeast 348 400 13,300 1,538 Climbing FAA TRACON SMA TRACON (SMA)
Wed 08:11:40 PM 42.2194 -82.8256 62° Northeast 360 414 13,800 1,692 Climbing FAA TRACON SMA TRACON (SMA)
Wed 08:12:00 PM 42.2389 -82.7789 61° Northeast 370 426 14,400 1,463 Climbing FAA TRACON SMA TRACON (SMA)
Wed 08:12:21 PM 42.2550 -82.7411 60° Northeast 373 429 14,800 878 Climbing FAA TRACON SMA TRACON (SMA)
Wed 08:12:41 PM 42.2706 -82.7019 62° Northeast 382 440 15,000 308 Climbing FAA TRACON SMA TRACON (SMA)
Wed 08:13:00 PM 42.2900 -82.6486 64° Northeast 408 470 15,000  Level FAA TRACON SMA TRACON (SMA)
Wed 08:13:20 PM 42.3075 -82.6064 61° Northeast 418 481 15,000 146 Level FAA TRACON SMA TRACON (SMA)
Wed 08:13:41 PM 42.3264 -82.5633 59° Northeast 429 494 15,100 600 Climbing FAA TRACON SMA TRACON (SMA)
Wed 08:14:00 PM 42.3475 -82.5086 62° Northeast 428 493 15,400 769 Climbing FAA TRACON SMA TRACON (SMA)
Wed 08:14:20 PM 42.3647 -82.4642 62° Northeast 432 497 15,600 585 Climbing FAA TRACON SMA TRACON (SMA)
Wed 08:14:41 PM 42.3711 -82.4136 80° East 448 516 15,800 900 Climbing FAA TRACON SMA TRACON (SMA)
Wed 08:15:00 PM 42.3672 -82.3497 95° East 446 513 16,200 1,231 Climbing FAA TRACON SMA TRACON (SMA)
Wed 08:15:20 PM 42.3644 -82.2989 94° East 445 512 16,600 1,050 Climbing FAA TRACON SMA TRACON (SMA)
Wed 08:15:40 PM 42.3617 -82.2478 94° East 444 511 16,900 787 Climbing FAA TRACON SMA TRACON (SMA)
Wed 08:16:21 PM 42.3592 -82.1817 93° East 445 512 17,400 1,286 Climbing FAA TRACON SMA TRACON (SMA)
Wed 08:16:50 PM 42.3528 -82.0469 94° East 431 496 18,400 1,483 Climbing Cleveland Center
Wed 08:17:50 PM 42.3467 -81.8783 93° East 441 507 19,600 1,200 Climbing Cleveland Center
Wed 08:18:50 PM 42.3381 -81.7094 94° East 453 521 20,800 1,150 Climbing Cleveland Center
Wed 08:19:50 PM 42.3292 -81.5408 94° East 453 521 21,900 1,150 Climbing Cleveland Center
Wed 08:20:50 PM 42.3219 -81.3722 93° East 453 521 23,100 1,050 Climbing Cleveland Center
Wed 08:21:50 PM 42.3125 -81.2178 95° East 453 521 24,000 800 Climbing Cleveland Center
Wed 08:22:50 PM 42.3031 -81.0492 94° East 453 521 24,700 750 Climbing Cleveland Center
Wed 08:23:50 PM 42.2953 -80.8722 93° East 468 539 25,500 800 Climbing Cleveland Center
Wed 08:24:50 PM 42.2872 -80.6953 93° East 474 545 26,300 800 Climbing Cleveland Center
Wed 08:25:50 PM 42.2747 -80.4989 95° East 474 545 27,100 750 Climbing Cleveland Center
Wed 08:26:50 PM 42.2661 -80.3167 94° East 479 551 27,800 650 Climbing Cleveland Center
Wed 08:27:50 PM 42.2531 -80.1372 96° East 479 551 28,400 600 Climbing Cleveland Center
Wed 08:28:50 PM 42.2439 -79.9522 94° East 484 557 29,000 300 Climbing Cleveland Center
Wed 08:29:50 PM 42.2322 -79.7672 95° East 484 557 29,000  Level Cleveland Center
Wed 08:30:50 PM 42.2203 -79.5739 95° East 495 570 29,000  Level Cleveland Center
Wed 08:31:50 PM 42.2061 -79.3892 96° East 505 581 29,000  Level Cleveland Center
Wed 08:32:50 PM 42.1933 -79.1875 95° East 518 596 29,000  Level Cleveland Center
Wed 08:33:50 PM 42.2075 -78.9853 85° East 534 615 29,000  Level Cleveland Center
Wed 08:34:50 PM 42.2336 -78.7828 80° East 539 620 29,000  Level Cleveland Center
Wed 08:35:50 PM 42.2594 -78.5772 80° East 546 628 29,000  Level Cleveland Center
Wed 08:36:50 PM 42.2847 -78.3717 80° East 551 634 29,000  Level Cleveland Center
Wed 08:37:50 PM 42.3100 -78.1714 80° East 551 634 29,000  Level Cleveland Center
Wed 08:38:50 PM 42.3325 -77.9683 81° East 546 628 29,000  Level Cleveland Center
Wed 08:39:50 PM 42.3569 -77.7647 81° East 546 628 29,000  Level Cleveland Center
Wed 08:40:50 PM 42.3811 -77.5614 81° East 546 628 29,000  Level Cleveland Center
Wed 08:43:28 PM 42.4408 -77.0353 81° East 547 629 29,000  Level Boston Center
Wed 08:44:28 PM 42.4558 -76.8703 83° East 529 609 29,000  Level Boston Center
Wed 08:45:28 PM 42.4778 -76.6772 81° East 518 596 29,000  Level Boston Center
Wed 08:46:28 PM 42.4972 -76.4872 82° East 518 596 29,000  Level Boston Center
Wed 08:47:28 PM 42.5183 -76.2969 81° East 518 596 29,000  Level Boston Center
Wed 08:48:28 PM 42.5397 -76.0925 82° East 518 596 29,000  Level Boston Center
Wed 08:49:28 PM 42.5581 -75.9044 82° East 512 589 29,000  Level Boston Center
Wed 08:50:28 PM 42.5761 -75.7139 83° East 512 589 29,000  Level Boston Center
Wed 08:51:28 PM 42.5961 -75.5203 82° East 512 589 29,000  Level Boston Center
Wed 08:52:28 PM 42.6136 -75.3319 83° East 512 589 29,000  Level Boston Center
Wed 08:53:28 PM 42.6308 -75.1436 83° East 507 583 29,000  Level Boston Center
Wed 08:54:28 PM 42.6497 -74.9525 82° East 507 583 29,000  Level Boston Center
Wed 08:55:28 PM 42.6661 -74.7697 83° East 502 578 29,000  Level Boston Center
Wed 08:56:28 PM 42.6803 -74.5808 84° East 502 578 29,000 -100 Level Boston Center
Wed 08:57:28 PM 42.6983 -74.3894 83° East 502 578 28,800 -600 Descending Boston Center
Wed 08:58:28 PM 42.7158 -74.2092 82° East 497 572 27,800 -1,000 Descending Boston Center
Wed 08:59:28 PM 42.7269 -74.0342 85° East 485 558 26,800 -1,600 Descending Boston Center
Wed 09:00:28 PM 42.7417 -73.8564 84° East 480 552 24,600 -2,450 Descending Boston Center
Wed 09:01:28 PM 42.7522 -73.6814 85° East 475 547 21,900 -2,350 Descending Boston Center
Wed 09:02:28 PM 42.7286 -73.5253 102° East 437 503 19,900 -1,450 Descending Boston Center
Wed 09:03:28 PM 42.7258 -73.3614 91° East 437 503 19,000 -450 Descending Boston Center
Wed 09:04:28 PM 42.7353 -73.2147 85° East 425 489 19,000  Level Boston Center
Wed 09:05:28 PM 42.7469 -73.0394 85° East 425 489 19,000  Level Boston Center
Wed 09:06:28 PM 42.7578 -72.9067 84° East 425 489 19,000 -900 Level Boston Center
Wed 09:07:28 PM 42.7689 -72.7258 85° East 425 489 17,200 -1,900 Descending Boston Center
Wed 09:08:28 PM 42.7797 -72.5503 85° East 442 509 15,200 -2,300 Descending Boston Center
Wed 09:09:28 PM 42.7881 -72.3892 86° East 442 509 12,600 -2,500 Descending Boston Center
Wed 09:10:28 PM 42.8003 -72.2561 83° East 376 433 10,200 -1,750 Descending Boston Center
Wed 09:11:28 PM 42.8208 -72.1231 78° East 326 375 9,100 -850 Descending Boston Center
Wed 09:12:28 PM 42.8497 -72.0208 69° East 320 368 8,500 -1,150 Descending Boston Center
Wed 09:13:28 PM 42.9078 -71.9100 54° Northeast 320 368 6,800 -1,300 Descending Boston Center
Wed 09:14:28 PM 42.9508 -71.8161 58° Northeast 320 368 5,900 -950 Descending Boston Center
Wed 09:15:28 PM 42.9961 -71.7019 62° Northeast 315 362 4,900 -950 Descending Boston Center
Wed 09:16:28 PM 43.0267 -71.6136 65° Northeast 296 341 4,000 -850 Descending Boston Center
Wed 09:17:28 PM 43.0489 -71.5194 72° East 249 287 3,200 -800 Descending Boston Center

Login

Don't have an account? Register now (free) for customized features, flight alerts, and more!